Cozumel, Mexico

10:48 AM EST on February 06, 2016 (GMT -0500)
APRSWXNET | | Change Station
CLOSE
Current Station
Personal Weather Station
Location: Cozumel,
Elevation: 13 ft
Nearby Weather Stations

Elev 13 ft 20.50 °N, 86.96 °W | Updated 18 minutes ago

Mostly Cloudy
Mostly Cloudy
75 °F
Feels Like 75 °F
N
7
Wind Variable Wind from NE
Gusts 18.0 mph

Today
High -- | Low -- °F
--% Chance of Precip.
Yesterday
High -- | Low -- °F
Precip. -- in
Pressure 30.15 in
Visibility 7.0 miles
Clouds Scattered Clouds 1500 ft
Mostly Cloudy 7000 ft
Heat Index 75 °F
Dew Point 69 °F
Humidity 82%
Rainfall in
Snow Depth Not available.
7:22 AM 6:41 PM
Waning Crescent, 5% visible
METAR MMCZ 061441Z 05009KT 7SM SCT015 BKN070 22/19 A3012 RMK SLP208 52030 960 8/530
Pressure 30.15 in
Visibility 7.0 miles
Clouds Scattered Clouds 1500 ft
Mostly Cloudy 7000 ft
Heat Index 75 °F
Dew Point 69 °F
Humidity 82%
Rainfall in
Snow Depth Not available.
7:22 AM 6:41 PM
Waning Crescent, 5% visible
METAR MMCZ 061441Z 05009KT 7SM SCT015 BKN070 22/19 A3012 RMK SLP208 52030 960 8/530

10-Day Weather Forecast

No radar image for this location.
×

Almanac

Astronomy

Feb. 06, 2016 Rise Set
Actual Time
Civil Twilight
Nautical Twilight
Astronomical Twilight
Moon
Length of Visible Light
Length of Day
Tomorrow will be .
, % of the Moon is Illuminated

Today's Extremes

Country Highs Country Lows

Community

WunderPhotos

Upload Photos

1,890,987 photos uploaded!

WunderBlog® & News

Nearby

Air Quality

  Air Quality AQ Index Pollutant
Not available.

Snow Depth

Station Depth Elevation

Earthquake Activity

City Distance Mag. Time & Date
Minimum magnitude displayed is 2.5.

Coastal Water Temperatures

Place Temperature

Stations

Nearby Weather Stations

Station Location Temp. Windchill Dew Point Humidity Wind Precip. Elev Updated Type